createdAt,value
2018-02-27T00:00:19.147Z,6.72
2018-02-27T00:02:48.534Z,7.60
2018-02-27T00:05:17.949Z,8.10
2018-02-27T00:07:47.379Z,8.02
2018-02-27T00:10:16.791Z,8.45
2018-02-27T00:12:46.199Z,6.07
2018-02-27T00:15:15.578Z,7.80
2018-02-27T00:17:44.996Z,9.23
2018-02-27T00:20:14.429Z,7.03
2018-02-27T00:22:43.854Z,5.37
2018-02-27T00:25:13.296Z,8.10
2018-02-27T00:27:42.700Z,6.03
2018-02-27T00:30:12.168Z,8.95
2018-02-27T00:32:41.586Z,9.40
2018-02-27T00:35:11.273Z,8.38
2018-02-27T00:37:41.169Z,6.70
2018-02-27T00:40:10.902Z,9.75
2018-02-27T00:42:40.339Z,7.50
2018-02-27T00:45:09.977Z,8.30
2018-02-27T00:47:39.384Z,6.03
2018-02-27T00:50:09.089Z,8.00
2018-02-27T00:52:38.506Z,6.32
2018-02-27T00:55:08.157Z,7.93
2018-02-27T00:57:37.602Z,7.05
2018-02-27T01:00:07.121Z,6.93
2018-02-27T01:02:36.559Z,7.25
2018-02-27T01:05:06.147Z,8.02
2018-02-27T01:07:35.576Z,7.93
2018-02-27T01:10:05.215Z,7.43
2018-02-27T01:12:34.679Z,6.53
2018-02-27T01:15:04.337Z,7.40
2018-02-27T01:17:33.757Z,8.18
2018-02-27T01:20:03.451Z,8.80
2018-02-27T01:22:32.868Z,9.13
2018-02-27T01:25:02.467Z,7.20
2018-02-27T01:27:31.887Z,6.50
2018-02-27T01:30:01.296Z,7.60
2018-02-27T01:32:30.707Z,8.10
2018-02-27T01:35:00.119Z,7.22
2018-02-27T01:37:29.539Z,6.00
2018-02-27T01:39:58.917Z,6.22
2018-02-27T01:42:28.414Z,5.18
2018-02-27T01:44:57.818Z,6.10
2018-02-27T01:47:27.234Z,8.35
2018-02-27T01:49:56.594Z,12.90
2018-02-27T01:52:26.000Z,7.72
2018-02-27T01:54:55.391Z,7.20
2018-02-27T01:57:24.804Z,7.03
2018-02-27T01:59:54.183Z,7.12
2018-02-27T02:02:23.593Z,6.53
2018-02-27T02:04:52.999Z,5.55
2018-02-27T02:07:22.423Z,7.90
2018-02-27T02:09:51.802Z,7.45
2018-02-27T02:12:21.230Z,7.85
2018-02-27T02:14:50.624Z,7.60
2018-02-27T02:17:20.049Z,6.00
2018-02-27T02:19:49.473Z,6.03
2018-02-27T02:22:18.872Z,7.07
2018-02-27T02:24:48.268Z,3.80
2018-02-27T02:27:17.664Z,5.72
2018-02-27T02:29:47.078Z,5.97
2018-02-27T02:32:16.481Z,7.15
2018-02-27T02:34:45.914Z,8.70
2018-02-27T02:37:15.363Z,5.87
2018-02-27T02:39:44.742Z,6.45
2018-02-27T02:42:28.920Z,6.87
2018-02-27T02:44:58.327Z,8.10
2018-02-27T02:47:27.705Z,6.65
2018-02-27T02:49:57.138Z,6.80
2018-02-27T02:52:26.510Z,5.37
2018-02-27T02:54:55.914Z,6.68
2018-02-27T02:57:25.322Z,5.37
2018-02-27T02:59:54.721Z,7.90
2018-02-27T03:02:24.124Z,5.70
2018-02-27T03:04:53.526Z,6.10
2018-02-27T03:07:22.940Z,6.72
2018-02-27T03:09:52.316Z,7.00
2018-02-27T03:12:27.747Z,7.40
2018-02-27T03:14:57.160Z,8.70
2018-02-27T03:17:26.593Z,5.53
2018-02-27T03:19:56.026Z,5.78
2018-02-27T03:22:25.413Z,6.65
2018-02-27T03:24:55.683Z,8.05
2018-02-27T03:27:25.130Z,6.82
2018-02-27T03:29:55.379Z,8.50
2018-02-27T03:32:24.810Z,8.85
2018-02-27T03:34:54.186Z,8.70
2018-02-27T03:37:23.584Z,8.60
2018-02-27T03:39:53.026Z,5.35
2018-02-27T03:42:22.401Z,6.93
2018-02-27T03:44:51.851Z,5.95
2018-02-27T03:47:21.248Z,8.95
2018-02-27T03:49:50.652Z,6.93
2018-02-27T03:52:20.061Z,10.70
2018-02-27T03:54:49.484Z,7.70
2018-02-27T03:57:18.871Z,8.45
2018-02-27T03:59:48.297Z,5.93
2018-02-27T04:02:17.713Z,8.75
2018-02-27T04:04:47.211Z,6.90
2018-02-27T04:07:16.596Z,5.90
2018-02-27T04:09:46.030Z,6.10
2018-02-27T04:12:15.445Z,6.60
2018-02-27T04:14:44.872Z,7.15
2018-02-27T04:17:14.241Z,5.43
2018-02-27T04:19:43.657Z,7.55
2018-02-27T04:22:13.081Z,5.62
2018-02-27T04:24:42.460Z,6.18
2018-02-27T04:27:11.902Z,7.05
2018-02-27T04:29:41.284Z,16.17
2018-02-27T04:32:10.669Z,6.50
2018-02-27T04:34:40.094Z,7.82
2018-02-27T04:37:09.479Z,6.10
2018-02-27T04:39:38.884Z,5.87
2018-02-27T04:42:08.283Z,9.10
2018-02-27T04:44:37.694Z,6.03
2018-02-27T04:47:07.077Z,6.12
2018-02-27T04:49:36.491Z,7.65
2018-02-27T04:52:05.891Z,6.30
2018-02-27T04:54:35.292Z,7.43
2018-02-27T04:57:04.706Z,8.23
2018-02-27T04:59:34.111Z,5.65
2018-02-27T05:02:03.506Z,7.00
2018-02-27T05:04:32.946Z,7.28
2018-02-27T05:07:02.336Z,7.07
2018-02-27T05:09:31.722Z,8.98
2018-02-27T05:12:01.202Z,8.23
2018-02-27T05:14:30.580Z,8.60
2018-02-27T05:17:00.005Z,7.55
2018-02-27T05:19:29.407Z,11.00
2018-02-27T05:21:58.827Z,5.82
2018-02-27T05:24:28.204Z,7.62
2018-02-27T05:26:57.641Z,7.50
2018-02-27T05:29:27.013Z,6.05
2018-02-27T05:31:56.437Z,7.70
2018-02-27T05:34:25.819Z,5.55
2018-02-27T05:36:55.231Z,6.07
2018-02-27T05:39:25.281Z,6.03
2018-02-27T05:41:54.697Z,6.12
2018-02-27T05:44:24.086Z,7.12
2018-02-27T05:46:53.504Z,8.05
2018-02-27T05:49:22.889Z,7.05
2018-02-27T05:51:52.315Z,6.80
2018-02-27T05:54:21.705Z,6.40
2018-02-27T05:56:51.120Z,9.88
2018-02-27T05:59:20.500Z,8.68
2018-02-27T06:01:49.930Z,8.43
2018-02-27T06:04:19.337Z,7.37
2018-02-27T06:06:48.762Z,8.85
2018-02-27T06:09:18.158Z,9.18
2018-02-27T06:11:47.570Z,9.25
2018-02-27T06:14:16.987Z,8.52
2018-02-27T06:16:46.378Z,6.85
2018-02-27T06:19:15.779Z,7.68
2018-02-27T06:21:45.168Z,4.85
2018-02-27T06:24:14.578Z,8.50
2018-02-27T06:26:44.081Z,17.25
2018-02-27T06:29:13.473Z,13.82
2018-02-27T06:31:42.894Z,10.73
2018-02-27T06:34:12.295Z,11.85
2018-02-27T06:36:41.717Z,11.70
2018-02-27T06:39:11.108Z,11.45
2018-02-27T06:41:40.533Z,9.88
2018-02-27T06:44:09.908Z,12.40
2018-02-27T06:46:39.325Z,17.08
2018-02-27T06:49:08.757Z,20.80
2018-02-27T06:51:38.173Z,18.08
2018-02-27T06:54:07.604Z,23.45
2018-02-27T06:56:37.064Z,22.65
2018-02-27T06:59:06.449Z,26.42
2018-02-27T07:01:35.873Z,18.83
2018-02-27T07:04:05.260Z,21.02
2018-02-27T07:06:34.665Z,19.90
2018-02-27T07:09:04.091Z,22.20
2018-02-27T07:11:33.524Z,23.75
2018-02-27T07:14:02.878Z,34.15
2018-02-27T07:16:32.700Z,43.97
2018-02-27T07:19:02.417Z,21.48
2018-02-27T07:21:31.834Z,25.00
2018-02-27T07:24:01.253Z,24.05
2018-02-27T07:26:30.668Z,26.37
2018-02-27T07:29:00.078Z,21.98
2018-02-27T07:31:29.484Z,23.87
2018-02-27T07:33:58.885Z,16.42
2018-02-27T07:36:28.297Z,13.18
2018-02-27T07:38:57.708Z,13.45
2018-02-27T07:41:27.142Z,10.82
2018-02-27T07:43:56.548Z,10.57
2018-02-27T07:46:25.990Z,10.65
2018-02-27T07:48:55.445Z,8.68
2018-02-27T07:51:24.948Z,10.52
2018-02-27T07:53:54.348Z,11.93
2018-02-27T07:56:23.756Z,12.05
2018-02-27T07:58:53.156Z,10.18
2018-02-27T08:01:22.549Z,10.30
2018-02-27T08:03:52.292Z,5.87
2018-02-27T08:06:21.678Z,6.68
2018-02-27T08:08:51.077Z,8.68
2018-02-27T08:11:20.472Z,9.00
2018-02-27T08:13:49.891Z,9.10
2018-02-27T08:16:19.269Z,8.38
2018-02-27T08:18:48.672Z,8.32
2018-02-27T08:21:18.053Z,7.80
2018-02-27T08:23:47.511Z,10.77
2018-02-27T08:26:16.883Z,8.85
2018-02-27T08:28:46.310Z,10.25
2018-02-27T08:31:15.706Z,9.50
2018-02-27T08:33:45.116Z,9.18
2018-02-27T08:36:14.540Z,10.80
2018-02-27T08:38:43.958Z,8.93
2018-02-27T08:41:13.358Z,11.35
2018-02-27T08:43:42.798Z,11.95
2018-02-27T08:46:12.174Z,10.23
2018-02-27T08:48:41.572Z,10.73
2018-02-27T08:51:10.992Z,11.70
2018-02-27T08:53:40.377Z,8.85
2018-02-27T08:56:09.819Z,10.75
2018-02-27T08:58:39.201Z,9.00
2018-02-27T09:01:08.611Z,9.55
2018-02-27T09:03:38.499Z,8.90
2018-02-27T09:06:07.910Z,7.65
2018-02-27T09:08:37.907Z,8.27
2018-02-27T09:11:07.328Z,6.30
2018-02-27T09:13:36.700Z,7.18
2018-02-27T09:16:06.111Z,5.93
2018-02-27T09:18:35.543Z,7.78
2018-02-27T09:21:04.930Z,5.40
2018-02-27T09:23:34.358Z,6.43
2018-02-27T09:26:03.739Z,6.10
2018-02-27T09:28:33.163Z,5.00
2018-02-27T09:31:02.568Z,4.95
2018-02-27T09:33:31.978Z,5.35
2018-02-27T09:36:01.374Z,3.50
2018-02-27T09:38:30.762Z,3.90
2018-02-27T09:41:00.175Z,6.47
2018-02-27T09:43:29.575Z,5.40
2018-02-27T09:45:58.985Z,6.95
2018-02-27T09:48:28.380Z,4.05
2018-02-27T09:50:57.816Z,5.30
2018-02-27T09:53:27.189Z,4.97
2018-02-27T09:55:56.597Z,5.57
2018-02-27T09:58:25.980Z,3.85
2018-02-27T10:00:55.423Z,4.35
2018-02-27T10:03:24.812Z,4.55
2018-02-27T10:05:54.236Z,8.55
2018-02-27T10:08:23.684Z,5.50
2018-02-27T10:10:53.102Z,3.42
2018-02-27T10:13:22.478Z,4.78
2018-02-27T10:15:51.905Z,6.18
2018-02-27T10:18:21.328Z,5.37
2018-02-27T10:20:50.710Z,5.62
2018-02-27T10:23:20.138Z,5.95
2018-02-27T10:25:49.539Z,11.95
2018-02-27T10:28:18.948Z,8.13
2018-02-27T10:30:48.369Z,9.73
2018-02-27T10:33:17.785Z,4.43
2018-02-27T10:35:47.229Z,5.93
2018-02-27T10:38:16.596Z,3.80
2018-02-27T10:40:46.018Z,5.35
2018-02-27T10:43:15.390Z,5.28
2018-02-27T10:45:44.827Z,5.25
2018-02-27T10:48:14.206Z,5.32
2018-02-27T10:50:43.606Z,5.30
2018-02-27T10:53:13.023Z,5.07
2018-02-27T10:55:42.409Z,4.93
2018-02-27T10:58:11.820Z,4.62
2018-02-27T11:00:46.950Z,4.47
2018-02-27T11:03:16.365Z,5.20
2018-02-27T11:05:45.774Z,3.78
2018-02-27T11:08:15.210Z,5.95
2018-02-27T11:10:44.585Z,3.45
2018-02-27T11:13:13.995Z,4.60
2018-02-27T11:15:43.391Z,3.22
2018-02-27T11:18:12.800Z,5.55
2018-02-27T11:20:42.194Z,4.80
2018-02-27T11:23:11.620Z,4.00
2018-02-27T11:25:41.020Z,3.45
2018-02-27T11:28:10.448Z,3.45
2018-02-27T11:30:39.826Z,5.32
2018-02-27T11:33:09.249Z,5.32
2018-02-27T11:35:38.651Z,3.80
2018-02-27T11:38:08.078Z,4.75
2018-02-27T11:40:37.461Z,3.45
2018-02-27T11:43:06.906Z,4.20
2018-02-27T11:45:36.327Z,3.90
2018-02-27T11:48:05.761Z,8.05
2018-02-27T11:50:35.374Z,7.05
2018-02-27T11:53:04.789Z,5.00
2018-02-27T11:55:34.188Z,6.60
2018-02-27T11:58:03.586Z,7.45
2018-02-27T12:00:32.999Z,5.10
2018-02-27T12:03:02.388Z,5.90
2018-02-27T12:05:31.811Z,5.70
2018-02-27T12:08:01.202Z,9.90
2018-02-27T12:10:30.601Z,5.82
2018-02-27T12:12:59.982Z,5.07
2018-02-27T12:15:29.388Z,6.47
2018-02-27T12:17:58.804Z,7.60
2018-02-27T12:20:28.205Z,5.45
2018-02-27T12:22:57.627Z,6.40
2018-02-27T12:25:27.051Z,6.32
2018-02-27T12:27:56.430Z,5.65
2018-02-27T12:30:25.855Z,6.03
2018-02-27T12:32:55.275Z,15.35
2018-02-27T12:35:24.695Z,10.75
2018-02-27T12:37:54.291Z,5.78
2018-02-27T12:40:23.671Z,5.20
2018-02-27T12:42:53.095Z,5.15
2018-02-27T12:45:22.492Z,5.15
2018-02-27T12:47:51.930Z,4.70
2018-02-27T12:50:21.312Z,5.97
2018-02-27T12:52:50.723Z,4.25
2018-02-27T12:55:20.157Z,4.18
2018-02-27T12:57:49.541Z,4.07
2018-02-27T13:00:19.039Z,6.85
2018-02-27T13:02:48.747Z,15.32
2018-02-27T13:05:18.291Z,14.77
2018-02-27T13:07:47.687Z,9.05
2018-02-27T13:10:17.112Z,4.55
2018-02-27T13:12:46.529Z,4.95
2018-02-27T13:15:15.936Z,5.97
2018-02-27T13:17:45.366Z,4.60
2018-02-27T13:20:14.792Z,3.72
2018-02-27T13:22:44.179Z,3.95
2018-02-27T13:25:13.820Z,5.70
2018-02-27T13:27:43.234Z,4.43
2018-02-27T13:30:12.623Z,4.03
2018-02-27T13:32:42.089Z,4.37
2018-02-27T13:35:11.574Z,5.50
2018-02-27T13:37:40.986Z,4.85
2018-02-27T13:40:10.672Z,2.75
2018-02-27T13:42:40.136Z,3.17
2018-02-27T13:45:09.791Z,5.22
2018-02-27T13:47:39.226Z,5.70
2018-02-27T13:50:08.807Z,4.00
2018-02-27T13:52:38.208Z,4.47
2018-02-27T13:55:07.829Z,3.35
2018-02-27T13:57:37.275Z,5.60
2018-02-27T14:00:06.894Z,3.15
2018-02-27T14:02:36.376Z,4.80
2018-02-27T14:05:05.972Z,4.00
2018-02-27T14:07:35.431Z,4.30
2018-02-27T14:10:05.102Z,3.10
2018-02-27T14:12:34.632Z,3.47
2018-02-27T14:15:04.251Z,3.95
2018-02-27T14:17:33.686Z,3.60
2018-02-27T14:20:04.188Z,3.17
2018-02-27T14:22:33.652Z,4.25
2018-02-27T14:25:03.185Z,3.50
2018-02-27T14:27:32.642Z,3.25
2018-02-27T14:30:02.106Z,3.78
2018-02-27T14:32:31.534Z,5.68
2018-02-27T14:35:00.915Z,5.18
2018-02-27T14:37:30.326Z,6.00
2018-02-27T14:39:59.697Z,5.68
2018-02-27T14:42:29.136Z,4.40
2018-02-27T14:44:58.521Z,4.65
2018-02-27T14:47:28.034Z,3.97
2018-02-27T14:49:57.538Z,3.33
2018-02-27T14:52:26.940Z,4.85
2018-02-27T14:54:56.457Z,4.12
2018-02-27T14:57:25.854Z,5.40
2018-02-27T14:59:55.254Z,5.20
2018-02-27T15:02:24.632Z,5.40
2018-02-27T15:04:54.061Z,4.90
2018-02-27T15:07:23.454Z,6.93
2018-02-27T15:09:52.898Z,6.18
2018-02-27T15:12:22.285Z,5.53
2018-02-27T15:14:51.680Z,6.53
2018-02-27T15:17:21.100Z,8.57
2018-02-27T15:19:50.483Z,5.43
2018-02-27T15:22:19.909Z,5.55
2018-02-27T15:24:49.296Z,4.60
2018-02-27T15:27:18.718Z,4.57
2018-02-27T15:29:48.103Z,4.25
2018-02-27T15:32:17.537Z,5.05
2018-02-27T15:34:46.929Z,6.18
2018-02-27T15:37:16.349Z,7.45
2018-02-27T15:39:45.732Z,4.87
2018-02-27T15:42:15.138Z,5.55
2018-02-27T15:44:44.590Z,5.32
2018-02-27T15:47:14.008Z,5.72
2018-02-27T15:49:43.385Z,5.25
2018-02-27T15:52:12.800Z,5.57
2018-02-27T15:54:42.222Z,6.68
2018-02-27T15:57:11.598Z,6.55
2018-02-27T15:59:41.028Z,4.37
2018-02-27T16:02:10.445Z,7.10
2018-02-27T16:04:39.859Z,6.65
2018-02-27T16:07:09.248Z,7.95
2018-02-27T16:09:38.682Z,7.95
2018-02-27T16:12:09.714Z,7.45
2018-02-27T16:14:39.154Z,7.20
2018-02-27T16:17:08.550Z,10.13
2018-02-27T16:19:37.978Z,7.78
2018-02-27T16:22:07.415Z,7.75
2018-02-27T16:24:36.814Z,9.55
2018-02-27T16:27:06.266Z,10.63
2018-02-27T16:29:35.686Z,20.88
2018-02-27T16:32:05.821Z,13.38
2018-02-27T16:34:35.304Z,8.30
2018-02-27T16:37:04.691Z,6.85
2018-02-27T16:39:34.132Z,11.45
2018-02-27T16:42:03.523Z,7.60
2018-02-27T16:44:32.962Z,12.95
2018-02-27T16:47:02.390Z,8.18
2018-02-27T16:49:31.792Z,6.68
2018-02-27T16:52:01.211Z,7.47
2018-02-27T16:54:30.650Z,10.35
2018-02-27T16:57:00.442Z,7.68
2018-02-27T16:59:29.955Z,9.13
2018-02-27T17:01:59.424Z,7.65
2018-02-27T17:04:32.378Z,9.77
2018-02-27T17:07:01.847Z,8.95
2018-02-27T17:09:31.205Z,8.40
2018-02-27T17:12:00.582Z,7.95
2018-02-27T17:14:29.992Z,10.60
2018-02-27T17:16:59.898Z,8.65
2018-02-27T17:19:29.327Z,8.45
2018-02-27T17:21:58.763Z,8.07
2018-02-27T17:24:28.156Z,10.40
2018-02-27T17:26:57.614Z,12.23
2018-02-27T17:29:27.020Z,11.75
2018-02-27T17:31:56.406Z,11.12
2018-02-27T17:34:25.845Z,11.40
2018-02-27T17:36:55.230Z,10.35
2018-02-27T17:39:24.662Z,8.82
2018-02-27T17:41:54.096Z,12.52
2018-02-27T17:44:23.610Z,36.92
2018-02-27T17:46:52.985Z,22.73
2018-02-27T17:49:22.408Z,15.23
2018-02-27T17:51:51.794Z,11.35
2018-02-27T17:54:21.200Z,10.60
2018-02-27T17:56:50.613Z,12.90
2018-02-27T17:59:20.047Z,64.95
2018-02-27T18:01:49.642Z,42.62
2018-02-27T18:04:19.035Z,51.30
2018-02-27T18:06:48.480Z,42.97
2018-02-27T18:09:17.875Z,39.83
2018-02-27T18:11:47.288Z,36.17
2018-02-27T18:14:16.698Z,19.87
2018-02-27T18:16:46.121Z,19.00
2018-02-27T18:19:15.528Z,21.50
2018-02-27T18:21:44.953Z,14.98
2018-02-27T18:24:14.343Z,18.27
2018-02-27T18:26:43.767Z,17.12
2018-02-27T18:29:13.204Z,16.05
2018-02-27T18:31:42.606Z,12.55
2018-02-27T18:34:12.008Z,18.52
2018-02-27T18:36:41.436Z,22.27
2018-02-27T18:39:10.824Z,21.95
2018-02-27T18:41:40.268Z,16.62
2018-02-27T18:44:09.696Z,14.23
2018-02-27T18:46:39.122Z,22.83
2018-02-27T18:49:08.531Z,21.52
2018-02-27T18:51:37.961Z,43.17
2018-02-27T18:54:07.400Z,30.30
2018-02-27T18:56:36.834Z,29.92
2018-02-27T18:59:06.220Z,20.67
2018-02-27T19:01:35.663Z,20.83
2018-02-27T19:04:05.115Z,19.80
2018-02-27T19:06:34.570Z,28.62
2018-02-27T19:09:05.550Z,29.10
2018-02-27T19:11:40.174Z,32.83
2018-02-27T19:14:09.632Z,17.33
2018-02-27T19:16:43.712Z,15.77
2018-02-27T19:19:14.134Z,15.00
2018-02-27T19:21:44.063Z,13.20
2018-02-27T19:24:13.477Z,20.45
2018-02-27T19:26:42.924Z,15.00
2018-02-27T19:29:12.331Z,16.05
2018-02-27T19:31:41.786Z,13.52
2018-02-27T19:34:11.192Z,13.20
2018-02-27T19:36:40.606Z,15.27
2018-02-27T19:39:10.058Z,17.87
2018-02-27T19:41:40.271Z,15.88
2018-02-27T19:44:09.717Z,30.67
2018-02-27T19:46:39.157Z,15.00
2018-02-27T19:49:08.586Z,19.33
2018-02-27T19:51:37.991Z,17.30
2018-02-27T19:54:07.482Z,24.30
2018-02-27T19:56:36.896Z,11.68
2018-02-27T19:59:06.350Z,17.45
2018-02-27T20:01:35.800Z,10.48
2018-02-27T20:04:05.343Z,12.02
2018-02-27T20:06:34.828Z,10.95
2018-02-27T20:09:04.302Z,9.02
2018-02-27T20:11:33.757Z,10.10
2018-02-27T20:14:03.377Z,11.27
2018-02-27T20:16:32.788Z,9.45
2018-02-27T20:19:02.230Z,10.00
2018-02-27T20:21:31.637Z,10.05
2018-02-27T20:24:06.914Z,9.73
2018-02-27T20:26:36.321Z,8.65
2018-02-27T20:29:12.162Z,10.40
2018-02-27T20:31:41.606Z,8.43
2018-02-27T20:34:11.045Z,10.00
2018-02-27T20:36:40.477Z,8.20
2018-02-27T20:39:16.429Z,6.93
2018-02-27T20:41:45.829Z,9.65
2018-02-27T20:44:15.230Z,8.40
2018-02-27T20:46:44.635Z,6.32
2018-02-27T20:49:14.078Z,8.35
2018-02-27T20:51:43.474Z,11.90
2018-02-27T20:54:12.921Z,8.40
2018-02-27T20:56:42.335Z,6.68
2018-02-27T20:59:11.764Z,9.95
2018-02-27T21:01:41.178Z,7.05
2018-02-27T21:04:10.620Z,8.25
2018-02-27T21:06:40.031Z,7.90
2018-02-27T21:09:09.474Z,9.57
2018-02-27T21:11:38.862Z,8.20
2018-02-27T21:14:08.292Z,7.95
2018-02-27T21:16:37.735Z,12.15
2018-02-27T21:19:07.158Z,7.35
2018-02-27T21:21:36.588Z,6.75
2018-02-27T21:24:05.959Z,6.60
2018-02-27T21:26:35.404Z,5.97
2018-02-27T21:29:04.815Z,6.55
2018-02-27T21:31:34.237Z,5.40
2018-02-27T21:34:03.691Z,6.15
2018-02-27T21:36:33.070Z,5.47
2018-02-27T21:39:02.505Z,7.40
2018-02-27T21:41:31.889Z,6.78
2018-02-27T21:44:01.317Z,7.28
2018-02-27T21:46:30.744Z,6.07
2018-02-27T21:49:00.178Z,6.20
2018-02-27T21:51:29.599Z,6.15
2018-02-27T21:53:59.052Z,7.68
2018-02-27T21:56:28.431Z,7.85
2018-02-27T21:58:57.861Z,5.90
2018-02-27T22:01:27.222Z,10.77
2018-02-27T22:03:56.655Z,6.45
2018-02-27T22:06:26.048Z,6.53
2018-02-27T22:08:55.465Z,10.60
2018-02-27T22:11:25.248Z,9.95
2018-02-27T22:13:54.680Z,8.23
2018-02-27T22:16:24.048Z,6.85
2018-02-27T22:18:53.481Z,8.05
2018-02-27T22:21:22.910Z,8.57
2018-02-27T22:23:52.321Z,8.85
2018-02-27T22:26:21.718Z,9.65
2018-02-27T22:28:51.142Z,7.25
2018-02-27T22:31:20.572Z,8.07
2018-02-27T22:33:49.975Z,11.45
2018-02-27T22:36:19.378Z,12.27
2018-02-27T22:38:48.783Z,12.82
2018-02-27T22:41:18.202Z,10.70
2018-02-27T22:43:47.590Z,13.43
2018-02-27T22:46:17.021Z,9.45
2018-02-27T22:48:46.408Z,9.70
2018-02-27T22:51:16.251Z,13.30
2018-02-27T22:53:45.640Z,9.88
2018-02-27T22:56:15.066Z,13.30
2018-02-27T22:58:44.488Z,11.82
2018-02-27T23:01:13.892Z,12.68
2018-02-27T23:03:43.311Z,14.35
2018-02-27T23:06:12.720Z,12.85
2018-02-27T23:08:42.270Z,12.07
2018-02-27T23:11:11.660Z,14.18
2018-02-27T23:13:41.089Z,14.45
2018-02-27T23:16:10.475Z,13.93
2018-02-27T23:18:39.886Z,12.30
2018-02-27T23:21:09.278Z,12.25
2018-02-27T23:23:38.705Z,16.42
2018-02-27T23:26:11.724Z,14.98
2018-02-27T23:28:42.979Z,13.35
2018-02-27T23:31:12.726Z,15.18
2018-02-27T23:33:43.675Z,15.45
2018-02-27T23:36:13.092Z,15.82
2018-02-27T23:38:42.476Z,14.10
2018-02-27T23:41:11.894Z,12.48
2018-02-27T23:43:41.307Z,15.60
2018-02-27T23:46:10.733Z,11.57
2018-02-27T23:48:40.158Z,14.30
2018-02-27T23:51:09.576Z,11.73
2018-02-27T23:53:38.974Z,13.00
2018-02-27T23:56:08.400Z,13.90
2018-02-27T23:58:37.783Z,11.82
